createdAt,value
2023-02-16T00:00:32.274Z,61.25
2023-02-16T00:01:36.188Z,62.92
2023-02-16T00:02:38.817Z,54.20
2023-02-16T00:03:41.305Z,54.55
2023-02-16T00:04:43.786Z,64.68
2023-02-16T00:05:46.488Z,63.13
2023-02-16T00:06:49.805Z,60.33
2023-02-16T00:07:54.930Z,61.30
2023-02-16T00:08:57.574Z,67.88
2023-02-16T00:10:00.006Z,60.38
2023-02-16T00:11:20.991Z,55.63
2023-02-16T00:12:42.072Z,62.40
2023-02-16T00:13:44.652Z,66.88
2023-02-16T00:14:47.389Z,63.47
2023-02-16T00:15:49.965Z,66.15
2023-02-16T00:16:53.666Z,58.30
2023-02-16T00:17:56.519Z,60.83
2023-02-16T00:18:59.004Z,61.00
2023-02-16T00:20:01.521Z,62.10
2023-02-16T00:21:04.438Z,55.85
2023-02-16T00:22:07.773Z,59.95
2023-02-16T00:23:10.470Z,55.97
2023-02-16T00:24:13.034Z,64.55
2023-02-16T00:25:15.779Z,59.53
2023-02-16T00:26:21.044Z,64.22
2023-02-16T00:27:23.674Z,63.08
2023-02-16T00:28:26.431Z,56.25
2023-02-16T00:29:37.498Z,71.13
2023-02-16T00:30:40.092Z,63.83
2023-02-16T00:31:43.078Z,73.82
2023-02-16T00:32:45.560Z,64.05
2023-02-16T00:33:48.372Z,69.75
2023-02-16T00:34:54.296Z,66.68
2023-02-16T00:35:57.492Z,65.45
2023-02-16T00:37:05.683Z,70.78
2023-02-16T00:38:08.293Z,66.32
2023-02-16T00:39:10.959Z,64.50
2023-02-16T00:40:14.934Z,60.65
2023-02-16T00:41:37.477Z,74.80
2023-02-16T00:42:40.448Z,65.90
2023-02-16T00:43:44.250Z,62.08
2023-02-16T00:44:52.256Z,59.55
2023-02-16T00:45:55.383Z,68.20
2023-02-16T00:47:02.770Z,65.07
2023-02-16T00:48:05.917Z,65.40
2023-02-16T00:49:14.926Z,62.55
2023-02-16T00:50:29.002Z,66.80
2023-02-16T00:51:31.659Z,69.72
2023-02-16T00:52:39.841Z,71.10
2023-02-16T00:53:42.299Z,67.90
2023-02-16T00:54:45.256Z,66.90
2023-02-16T00:55:47.723Z,78.18
2023-02-16T00:56:50.300Z,63.83
2023-02-16T00:57:55.792Z,66.50
2023-02-16T00:58:58.425Z,64.47
2023-02-16T01:00:28.992Z,76.35
2023-02-16T01:01:32.804Z,70.93
2023-02-16T01:02:35.515Z,60.08
2023-02-16T01:03:38.196Z,61.53
2023-02-16T01:04:40.878Z,69.10
2023-02-16T01:05:43.544Z,59.25
2023-02-16T01:07:04.948Z,65.70
2023-02-16T01:08:36.436Z,60.65
2023-02-16T01:09:58.548Z,58.65
2023-02-16T01:11:07.546Z,61.63
2023-02-16T01:12:15.934Z,66.55
2023-02-16T01:13:18.696Z,62.75
2023-02-16T01:14:21.209Z,63.70
2023-02-16T01:15:25.446Z,63.38
2023-02-16T01:16:40.027Z,66.22
2023-02-16T01:17:42.593Z,65.47
2023-02-16T01:18:45.700Z,61.22
2023-02-16T01:19:48.427Z,66.38
2023-02-16T01:20:52.011Z,66.20
2023-02-16T01:21:54.596Z,66.70
2023-02-16T01:22:57.593Z,70.35
2023-02-16T01:24:00.720Z,72.70
2023-02-16T01:25:03.304Z,62.45
2023-02-16T01:26:07.695Z,67.30
2023-02-16T01:27:13.950Z,60.38
2023-02-16T01:28:24.976Z,66.03
2023-02-16T01:29:27.484Z,57.33
2023-02-16T01:30:30.134Z,58.03
2023-02-16T01:31:33.048Z,57.20
2023-02-16T01:32:38.388Z,62.33
2023-02-16T01:33:43.602Z,59.70
2023-02-16T01:34:46.050Z,54.15
2023-02-16T01:35:48.826Z,69.63
2023-02-16T01:36:51.308Z,63.63
2023-02-16T01:37:53.816Z,65.43
2023-02-16T01:38:56.366Z,55.53
2023-02-16T01:39:58.928Z,64.30
2023-02-16T01:41:28.378Z,64.10
2023-02-16T01:42:47.442Z,63.75
2023-02-16T01:44:06.097Z,69.03
2023-02-16T01:45:15.353Z,60.13
2023-02-16T01:46:46.000Z,54.53
2023-02-16T01:47:53.686Z,59.20
2023-02-16T01:48:56.098Z,55.30
2023-02-16T01:49:59.738Z,53.65
2023-02-16T01:51:25.881Z,52.00
2023-02-16T01:52:36.646Z,54.90
2023-02-16T01:53:51.614Z,55.75
2023-02-16T01:55:13.557Z,60.22
2023-02-16T01:56:50.466Z,34.28
2023-02-16T01:57:56.622Z,49.45
2023-02-16T01:59:05.081Z,45.42
2023-02-16T02:00:09.710Z,45.40
2023-02-16T02:01:41.603Z,46.00
2023-02-16T02:02:50.844Z,46.70
2023-02-16T02:04:11.904Z,43.35
2023-02-16T02:06:41.126Z,41.67
2023-02-16T02:08:04.330Z,45.40
2023-02-16T02:09:16.309Z,43.90
2023-02-16T02:10:35.262Z,49.75
2023-02-16T02:11:47.203Z,43.15
2023-02-16T02:12:54.246Z,45.22
2023-02-16T02:14:06.031Z,38.10
2023-02-16T02:16:12.474Z,38.53
2023-02-16T02:17:18.205Z,41.40
2023-02-16T02:18:21.005Z,36.90
2023-02-16T02:19:23.793Z,40.78
2023-02-16T02:20:50.575Z,44.40
2023-02-16T02:22:32.777Z,44.25
2023-02-16T02:24:08.324Z,46.22
2023-02-16T02:25:38.050Z,41.70
2023-02-16T02:27:02.750Z,45.70
2023-02-16T02:28:19.404Z,53.22
2023-02-16T02:29:44.301Z,48.95
2023-02-16T02:30:53.270Z,47.13
2023-02-16T02:32:17.296Z,50.22
2023-02-16T02:33:29.352Z,49.42
2023-02-16T02:34:42.487Z,50.70
2023-02-16T02:35:51.713Z,55.78
2023-02-16T02:36:54.146Z,47.83
2023-02-16T02:38:13.071Z,51.30
2023-02-16T02:39:34.774Z,59.90
2023-02-16T02:40:58.806Z,50.45
2023-02-16T02:42:18.939Z,56.05
2023-02-16T02:43:41.649Z,53.95
2023-02-16T02:44:50.005Z,57.22
2023-02-16T02:45:59.766Z,46.45
2023-02-16T02:47:02.911Z,56.00
2023-02-16T02:48:05.660Z,57.75
2023-02-16T02:49:08.160Z,54.33
2023-02-16T02:51:04.058Z,49.58
2023-02-16T02:52:07.923Z,53.60
2023-02-16T02:53:14.761Z,57.00
2023-02-16T02:54:36.382Z,48.15
2023-02-16T02:56:03.799Z,54.80
2023-02-16T02:57:29.302Z,59.97
2023-02-16T02:58:52.698Z,48.63
2023-02-16T03:00:40.326Z,49.30
2023-02-16T03:01:50.633Z,49.20
2023-02-16T03:02:57.620Z,62.22
2023-02-16T03:04:00.750Z,51.40
2023-02-16T03:05:04.656Z,60.13
2023-02-16T03:06:15.523Z,54.92
2023-02-16T03:08:22.847Z,48.00
2023-02-16T03:09:25.750Z,49.40
2023-02-16T03:10:47.430Z,54.05
2023-02-16T03:12:09.243Z,48.28
2023-02-16T03:13:16.824Z,51.00
2023-02-16T03:14:25.093Z,47.72
2023-02-16T03:15:31.491Z,52.22
2023-02-16T03:16:45.931Z,48.88
2023-02-16T03:18:07.607Z,53.00
2023-02-16T03:19:32.302Z,52.30
2023-02-16T03:20:53.316Z,43.25
2023-02-16T03:22:15.753Z,38.70
2023-02-16T03:23:36.813Z,35.67
2023-02-16T03:24:58.005Z,44.38
2023-02-16T03:26:19.421Z,46.75
2023-02-16T03:27:44.353Z,41.67
2023-02-16T03:29:06.712Z,47.53
2023-02-16T03:30:11.093Z,43.15
2023-02-16T03:31:19.077Z,43.15
2023-02-16T03:32:21.990Z,42.05
2023-02-16T03:33:24.765Z,52.88
2023-02-16T03:34:28.388Z,54.97
2023-02-16T03:35:31.270Z,47.75
2023-02-16T03:36:36.279Z,49.30
2023-02-16T03:37:40.371Z,46.38
2023-02-16T03:38:42.866Z,44.88
2023-02-16T03:40:04.386Z,59.80
2023-02-16T03:41:07.011Z,58.58
2023-02-16T03:42:09.635Z,65.07
2023-02-16T03:43:12.332Z,52.33
2023-02-16T03:44:15.001Z,56.70
2023-02-16T03:45:18.948Z,57.20
2023-02-16T03:46:21.672Z,61.78
2023-02-16T03:47:24.119Z,63.47
2023-02-16T03:48:26.683Z,50.05
2023-02-16T03:49:29.265Z,59.67
2023-02-16T03:50:32.245Z,68.15
2023-02-16T03:51:35.102Z,62.28
2023-02-16T03:52:37.752Z,66.78
2023-02-16T03:53:40.250Z,62.90
2023-02-16T03:54:42.687Z,57.13
2023-02-16T03:55:47.211Z,59.08
2023-02-16T03:56:49.648Z,62.72
2023-02-16T03:57:52.198Z,61.50
2023-02-16T03:58:54.662Z,62.15
2023-02-16T03:59:59.228Z,54.75
2023-02-16T04:01:02.453Z,62.85
2023-02-16T04:02:05.271Z,61.85
2023-02-16T04:03:09.421Z,64.20
2023-02-16T04:04:11.864Z,65.18
2023-02-16T04:05:14.431Z,60.60
2023-02-16T04:06:17.219Z,61.38
2023-02-16T04:07:19.926Z,61.15
2023-02-16T04:08:22.757Z,64.95
2023-02-16T04:09:25.176Z,65.43
2023-02-16T04:10:28.080Z,53.58
2023-02-16T04:11:49.095Z,55.47
2023-02-16T04:12:51.864Z,61.55
2023-02-16T04:13:54.329Z,61.03
2023-02-16T04:14:56.950Z,60.72
2023-02-16T04:15:59.636Z,68.38
2023-02-16T04:17:03.523Z,62.50
2023-02-16T04:18:06.060Z,69.35
2023-02-16T04:19:08.796Z,60.00
2023-02-16T04:20:14.426Z,62.55
2023-02-16T04:21:16.976Z,56.25
2023-02-16T04:22:19.581Z,49.65
2023-02-16T04:23:22.069Z,60.20
2023-02-16T04:24:24.560Z,56.47
2023-02-16T04:25:27.369Z,57.33
2023-02-16T04:26:29.853Z,60.95
2023-02-16T04:27:32.562Z,58.75
2023-02-16T04:28:35.176Z,60.22
2023-02-16T04:29:37.706Z,58.97
2023-02-16T04:30:40.326Z,61.35
2023-02-16T04:31:43.237Z,63.28
2023-02-16T04:32:45.943Z,65.53
2023-02-16T04:33:48.348Z,66.85
2023-02-16T04:34:50.841Z,77.40
2023-02-16T04:35:53.258Z,66.07
2023-02-16T04:36:55.763Z,64.95
2023-02-16T04:37:58.276Z,68.28
2023-02-16T04:39:00.845Z,66.93
2023-02-16T04:40:04.742Z,73.57
2023-02-16T04:41:07.293Z,71.82
2023-02-16T04:42:09.787Z,67.22
2023-02-16T04:43:12.194Z,60.17
2023-02-16T04:44:14.718Z,67.22
2023-02-16T04:45:17.218Z,50.75
2023-02-16T04:46:19.685Z,42.60
2023-02-16T04:47:25.809Z,51.80
2023-02-16T04:48:28.429Z,51.90
2023-02-16T04:49:30.949Z,65.65
2023-02-16T04:50:33.687Z,57.00
2023-02-16T04:51:36.244Z,57.47
2023-02-16T04:52:39.305Z,56.92
2023-02-16T04:53:41.900Z,58.40
2023-02-16T04:54:44.371Z,55.63
2023-02-16T04:55:50.642Z,66.00
2023-02-16T04:56:53.161Z,60.53
2023-02-16T04:57:55.577Z,52.47
2023-02-16T04:58:58.176Z,54.85
2023-02-16T05:00:00.704Z,62.92
2023-02-16T05:01:04.017Z,62.40
2023-02-16T05:02:06.969Z,64.65
2023-02-16T05:03:10.007Z,70.95
2023-02-16T05:04:12.846Z,56.65
2023-02-16T05:05:15.638Z,68.22
2023-02-16T05:06:18.368Z,59.17
2023-02-16T05:07:20.899Z,65.80
2023-02-16T05:08:23.620Z,63.53
2023-02-16T05:09:26.276Z,70.68
2023-02-16T05:10:29.038Z,65.25
2023-02-16T05:11:50.149Z,59.65
2023-02-16T05:13:11.112Z,62.20
2023-02-16T05:15:40.872Z,63.33
2023-02-16T05:16:44.027Z,62.35
2023-02-16T05:17:46.701Z,58.05
2023-02-16T05:18:49.549Z,71.70
2023-02-16T05:19:55.095Z,63.55
2023-02-16T05:21:16.161Z,59.20
2023-02-16T05:22:19.482Z,56.65
2023-02-16T05:23:22.074Z,62.67
2023-02-16T05:24:25.395Z,67.22
2023-02-16T05:25:28.696Z,68.60
2023-02-16T05:26:31.376Z,69.78
2023-02-16T05:27:33.940Z,54.17
2023-02-16T05:28:36.457Z,65.88
2023-02-16T05:29:39.039Z,69.20
2023-02-16T05:30:41.578Z,61.53
2023-02-16T05:31:44.159Z,67.72
2023-02-16T05:32:46.666Z,63.80
2023-02-16T05:33:49.408Z,72.82
2023-02-16T05:34:51.883Z,74.45
2023-02-16T05:35:54.606Z,68.53
2023-02-16T05:36:57.105Z,70.13
2023-02-16T05:37:59.529Z,62.65
2023-02-16T05:39:02.195Z,63.03
2023-02-16T05:40:05.135Z,65.38
2023-02-16T05:41:07.807Z,68.05
2023-02-16T05:42:10.755Z,68.47
2023-02-16T05:43:13.310Z,74.53
2023-02-16T05:44:16.485Z,58.85
2023-02-16T05:45:19.551Z,64.88
2023-02-16T05:46:23.107Z,65.35
2023-02-16T05:47:25.732Z,70.43
2023-02-16T05:48:28.131Z,63.92
2023-02-16T05:49:30.830Z,74.32
2023-02-16T05:50:33.322Z,70.85
2023-02-16T05:51:36.761Z,64.53
2023-02-16T05:52:39.374Z,73.40
2023-02-16T05:53:42.048Z,69.40
2023-02-16T05:54:44.700Z,68.13
2023-02-16T05:55:47.164Z,69.50
2023-02-16T05:56:51.505Z,69.75
2023-02-16T05:57:54.089Z,71.57
2023-02-16T05:58:56.617Z,65.97
2023-02-16T05:59:59.119Z,74.00
2023-02-16T06:01:02.020Z,64.30
2023-02-16T06:02:04.838Z,66.03
2023-02-16T06:03:07.577Z,65.60
2023-02-16T06:04:11.387Z,71.35
2023-02-16T06:05:13.962Z,66.85
2023-02-16T06:06:16.654Z,71.30
2023-02-16T06:07:19.196Z,63.88
2023-02-16T06:08:21.679Z,75.50
2023-02-16T06:09:24.371Z,70.82
2023-02-16T06:10:27.050Z,70.25
2023-02-16T06:11:38.701Z,67.30
2023-02-16T06:12:43.224Z,70.95
2023-02-16T06:13:47.094Z,73.15
2023-02-16T06:14:49.726Z,73.18
2023-02-16T06:15:54.563Z,77.90
2023-02-16T06:16:58.836Z,73.03
2023-02-16T06:18:03.298Z,71.50
2023-02-16T06:19:06.513Z,83.00
2023-02-16T06:20:09.780Z,69.15
2023-02-16T06:21:12.259Z,70.60
2023-02-16T06:22:14.987Z,67.78
2023-02-16T06:23:17.757Z,73.05
2023-02-16T06:24:20.222Z,72.68
2023-02-16T06:25:22.668Z,72.70
2023-02-16T06:26:25.569Z,83.10
2023-02-16T06:27:28.864Z,111.53
2023-02-16T06:28:31.475Z,131.02
2023-02-16T06:29:33.926Z,151.07
2023-02-16T06:30:36.538Z,129.07
2023-02-16T06:31:39.227Z,90.18
2023-02-16T06:32:41.967Z,80.93
2023-02-16T06:33:44.816Z,102.00
2023-02-16T06:34:47.404Z,91.10
2023-02-16T06:35:49.930Z,85.55
2023-02-16T06:36:52.337Z,75.47
2023-02-16T06:37:54.811Z,75.88
2023-02-16T06:38:57.309Z,91.68
2023-02-16T06:39:59.792Z,91.05
2023-02-16T06:41:02.400Z,89.93
2023-02-16T06:42:05.085Z,85.60
2023-02-16T06:43:07.503Z,85.90
2023-02-16T06:44:15.333Z,83.03
2023-02-16T06:45:18.165Z,80.95
2023-02-16T06:46:20.610Z,79.20
2023-02-16T06:47:23.044Z,77.70
2023-02-16T06:48:25.571Z,78.88
2023-02-16T06:49:28.239Z,76.65
2023-02-16T06:50:30.983Z,75.68
2023-02-16T06:51:33.752Z,82.53
2023-02-16T06:52:37.307Z,80.47
2023-02-16T06:53:39.852Z,80.63
2023-02-16T06:54:42.748Z,81.88
2023-02-16T06:55:45.851Z,83.55
2023-02-16T06:56:48.378Z,84.40
2023-02-16T06:57:50.820Z,71.45
2023-02-16T06:58:53.302Z,81.18
2023-02-16T06:59:56.591Z,80.97
2023-02-16T07:00:59.164Z,76.68
2023-02-16T07:02:01.641Z,81.82
2023-02-16T07:03:04.240Z,77.65
2023-02-16T07:04:06.793Z,80.47
2023-02-16T07:05:09.586Z,67.30
2023-02-16T07:06:12.267Z,85.35
2023-02-16T07:07:14.910Z,82.25
2023-02-16T07:08:17.327Z,73.85
2023-02-16T07:09:19.839Z,76.05
2023-02-16T07:10:22.296Z,79.70
2023-02-16T07:11:24.753Z,74.88
2023-02-16T07:12:27.446Z,84.68
2023-02-16T07:13:29.931Z,78.35
2023-02-16T07:14:32.662Z,77.28
2023-02-16T07:15:35.150Z,78.25
2023-02-16T07:16:37.806Z,81.20
2023-02-16T07:17:40.319Z,83.35
2023-02-16T07:18:42.886Z,78.47
2023-02-16T07:19:45.519Z,75.30
2023-02-16T07:20:48.217Z,74.07
2023-02-16T07:21:50.923Z,69.63
2023-02-16T07:22:53.463Z,78.45
2023-02-16T07:23:56.095Z,72.43
2023-02-16T07:25:00.645Z,79.97
2023-02-16T07:26:03.227Z,72.75
2023-02-16T07:27:05.699Z,80.80
2023-02-16T07:28:08.261Z,75.40
2023-02-16T07:29:10.820Z,69.13
2023-02-16T07:30:16.557Z,80.25
2023-02-16T07:31:19.614Z,75.28
2023-02-16T07:32:22.156Z,76.80
2023-02-16T07:33:24.686Z,80.32
2023-02-16T07:34:27.154Z,73.65
2023-02-16T07:35:29.745Z,70.07
2023-02-16T07:36:32.396Z,77.82
2023-02-16T07:37:35.077Z,75.47
2023-02-16T07:38:38.137Z,83.47
2023-02-16T07:39:40.687Z,72.60
2023-02-16T07:40:43.089Z,79.22
2023-02-16T07:41:45.539Z,81.93
2023-02-16T07:42:53.243Z,72.03
2023-02-16T07:43:55.820Z,72.43
2023-02-16T07:44:58.812Z,72.57
2023-02-16T07:46:01.571Z,75.25
2023-02-16T07:47:05.178Z,75.15
2023-02-16T07:48:07.734Z,70.90
2023-02-16T07:49:10.175Z,74.65
2023-02-16T07:50:12.824Z,74.10
2023-02-16T07:51:24.796Z,76.00
2023-02-16T07:52:31.162Z,75.55
2023-02-16T07:53:33.841Z,65.40
2023-02-16T07:54:36.303Z,82.25
2023-02-16T07:55:40.681Z,74.00
2023-02-16T07:56:43.218Z,72.60
2023-02-16T07:57:45.717Z,72.88
2023-02-16T07:58:48.355Z,76.25
2023-02-16T07:59:53.781Z,70.95
2023-02-16T08:00:57.832Z,79.22
2023-02-16T08:02:00.534Z,77.80
2023-02-16T08:03:03.894Z,78.45
2023-02-16T08:04:07.196Z,70.25
2023-02-16T08:05:09.734Z,75.22
2023-02-16T08:06:12.563Z,70.47
2023-02-16T08:07:16.802Z,65.22
2023-02-16T08:08:19.352Z,70.18
2023-02-16T08:09:22.057Z,67.43
2023-02-16T08:10:24.754Z,77.07
2023-02-16T08:11:27.308Z,65.65
2023-02-16T08:12:30.177Z,71.47
2023-02-16T08:13:32.622Z,70.45
2023-02-16T08:14:35.056Z,75.82
2023-02-16T08:15:37.718Z,76.70
2023-02-16T08:16:40.294Z,72.40
2023-02-16T08:17:43.588Z,73.53
2023-02-16T08:18:46.182Z,70.25
2023-02-16T08:19:48.841Z,65.93
2023-02-16T08:21:03.642Z,66.10
2023-02-16T08:22:07.677Z,64.68
2023-02-16T08:23:10.403Z,71.95
2023-02-16T08:24:13.314Z,71.53
2023-02-16T08:25:16.000Z,68.57
2023-02-16T08:26:19.404Z,66.32
2023-02-16T08:27:22.013Z,65.78
2023-02-16T08:28:28.499Z,71.00
2023-02-16T08:29:32.136Z,64.88
2023-02-16T08:30:34.824Z,65.95
2023-02-16T08:31:38.370Z,64.40
2023-02-16T08:32:41.351Z,64.03
2023-02-16T08:33:44.094Z,63.97
2023-02-16T08:34:46.724Z,64.80
2023-02-16T08:35:49.403Z,65.88
2023-02-16T08:36:57.102Z,58.13
2023-02-16T08:38:00.118Z,65.32
2023-02-16T08:39:11.257Z,62.20
2023-02-16T08:40:13.926Z,62.85
2023-02-16T08:41:18.248Z,59.40
2023-02-16T08:42:21.330Z,67.80
2023-02-16T08:43:24.060Z,64.20
2023-02-16T08:44:28.974Z,65.93
2023-02-16T08:45:32.714Z,65.72
2023-02-16T08:46:37.277Z,62.85
2023-02-16T08:47:39.989Z,65.72
2023-02-16T08:48:45.274Z,63.45
2023-02-16T08:49:48.000Z,65.05
2023-02-16T08:50:53.589Z,63.85
2023-02-16T08:51:58.440Z,62.67
2023-02-16T08:53:02.552Z,61.63
2023-02-16T08:54:08.582Z,62.75
2023-02-16T08:55:11.205Z,67.07
2023-02-16T08:56:14.930Z,57.30
2023-02-16T08:57:18.678Z,63.80
2023-02-16T08:58:21.229Z,58.92
2023-02-16T08:59:26.622Z,65.47
2023-02-16T09:00:37.785Z,61.45
2023-02-16T09:01:40.535Z,63.50
2023-02-16T09:02:43.418Z,64.53
2023-02-16T09:03:46.397Z,67.45
2023-02-16T09:04:49.820Z,64.63
2023-02-16T09:05:53.074Z,63.72
2023-02-16T09:06:56.560Z,61.40
2023-02-16T09:07:59.228Z,60.10
2023-02-16T09:09:01.934Z,63.20
2023-02-16T09:10:05.075Z,63.30
2023-02-16T09:11:17.099Z,65.97
2023-02-16T09:12:19.929Z,64.82
2023-02-16T09:13:22.451Z,70.32
2023-02-16T09:14:25.022Z,67.55
2023-02-16T09:15:27.670Z,60.20
2023-02-16T09:16:34.735Z,63.03
2023-02-16T09:17:37.521Z,61.67
2023-02-16T09:18:40.997Z,62.22
2023-02-16T09:19:44.829Z,64.60
2023-02-16T09:20:47.642Z,61.67
2023-02-16T09:21:56.734Z,63.58
2023-02-16T09:22:59.344Z,59.65
2023-02-16T09:24:03.931Z,64.25
2023-02-16T09:25:07.552Z,65.70
2023-02-16T09:26:11.417Z,61.38
2023-02-16T09:27:14.100Z,64.53
2023-02-16T09:28:17.290Z,59.72
2023-02-16T09:29:21.390Z,57.92
2023-02-16T09:30:24.217Z,63.38
2023-02-16T09:31:29.592Z,61.28
2023-02-16T09:32:32.245Z,62.22
2023-02-16T09:33:35.015Z,63.35
2023-02-16T09:34:38.458Z,62.58
2023-02-16T09:35:43.269Z,68.28
2023-02-16T09:36:45.910Z,68.00
2023-02-16T09:37:50.160Z,60.45
2023-02-16T09:38:54.333Z,63.75
2023-02-16T09:39:57.001Z,64.18
2023-02-16T09:41:05.790Z,62.20
2023-02-16T09:42:28.374Z,57.90
2023-02-16T09:43:45.636Z,59.17
2023-02-16T09:45:09.886Z,60.97
2023-02-16T09:46:14.081Z,59.15
2023-02-16T09:47:24.816Z,60.72
2023-02-16T09:48:36.712Z,61.85
2023-02-16T09:49:42.359Z,68.57
2023-02-16T09:50:54.912Z,59.10
2023-02-16T09:52:05.052Z,63.05
2023-02-16T09:53:15.237Z,57.80
2023-02-16T09:54:29.332Z,61.92
2023-02-16T09:55:38.728Z,60.13
2023-02-16T09:56:50.476Z,60.90
2023-02-16T09:58:04.660Z,67.82
2023-02-16T09:59:17.363Z,66.32
2023-02-16T10:00:20.417Z,58.35
2023-02-16T10:01:34.777Z,62.92
2023-02-16T10:02:52.668Z,63.08
2023-02-16T10:04:21.166Z,60.28
2023-02-16T10:05:29.675Z,54.38
2023-02-16T10:06:45.449Z,60.53
2023-02-16T10:08:31.392Z,60.95
2023-02-16T10:09:34.871Z,57.28
2023-02-16T10:10:48.333Z,59.80
2023-02-16T10:11:57.047Z,57.78
2023-02-16T10:13:05.306Z,57.28
2023-02-16T10:14:31.741Z,68.25
2023-02-16T10:15:35.238Z,58.83
2023-02-16T10:16:42.761Z,58.47
2023-02-16T10:17:46.141Z,59.47
2023-02-16T10:18:51.206Z,56.47
2023-02-16T10:19:58.006Z,62.58
2023-02-16T10:21:04.232Z,55.33
2023-02-16T10:22:11.455Z,65.22
2023-02-16T10:23:47.762Z,58.30
2023-02-16T10:24:58.630Z,59.90
2023-02-16T10:26:14.387Z,57.92
2023-02-16T10:27:17.155Z,58.53
2023-02-16T10:28:23.144Z,55.88
2023-02-16T10:29:27.108Z,59.97
2023-02-16T10:30:30.523Z,54.33
2023-02-16T10:32:03.572Z,58.03
2023-02-16T10:33:17.215Z,52.67
2023-02-16T10:34:24.395Z,58.17
2023-02-16T10:35:48.914Z,57.22
2023-02-16T10:37:12.572Z,56.58
2023-02-16T10:38:27.362Z,53.72
2023-02-16T10:39:36.123Z,55.42
2023-02-16T10:40:48.234Z,52.90
2023-02-16T10:42:09.874Z,56.28
2023-02-16T10:43:24.619Z,59.55
2023-02-16T10:44:36.190Z,61.00
2023-02-16T10:45:42.049Z,64.03
2023-02-16T10:46:47.901Z,64.72
2023-02-16T10:47:51.523Z,59.25
2023-02-16T10:48:54.967Z,55.00
2023-02-16T10:49:57.526Z,58.75
2023-02-16T10:51:12.939Z,54.30
2023-02-16T10:52:15.690Z,52.30
2023-02-16T10:53:22.239Z,55.65
2023-02-16T10:54:27.888Z,52.95
2023-02-16T10:55:30.696Z,59.90
2023-02-16T10:56:54.172Z,58.30
2023-02-16T10:57:59.733Z,58.88
2023-02-16T10:59:07.029Z,58.15
2023-02-16T11:00:14.370Z,52.20
2023-02-16T11:01:21.510Z,62.25
2023-02-16T11:02:39.152Z,56.00
2023-02-16T11:03:54.585Z,53.95
2023-02-16T11:04:58.973Z,54.83
2023-02-16T11:06:17.545Z,57.70
2023-02-16T11:07:25.634Z,51.55
2023-02-16T11:08:51.104Z,55.08
2023-02-16T11:09:56.310Z,53.80
2023-02-16T11:11:09.178Z,55.22
2023-02-16T11:12:32.614Z,50.13
2023-02-16T11:13:37.432Z,61.65
2023-02-16T11:14:40.829Z,53.67
2023-02-16T11:15:43.879Z,56.75
2023-02-16T11:16:46.665Z,51.38
2023-02-16T11:18:04.790Z,55.28
2023-02-16T11:19:13.671Z,54.53
2023-02-16T11:20:45.144Z,55.05
2023-02-16T11:21:55.493Z,55.60
2023-02-16T11:23:25.696Z,51.83
2023-02-16T11:24:37.476Z,60.78
2023-02-16T11:25:40.332Z,54.38
2023-02-16T11:26:43.849Z,54.20
2023-02-16T11:27:55.224Z,51.40
2023-02-16T11:29:08.840Z,55.15
2023-02-16T11:30:23.414Z,56.65
2023-02-16T11:31:34.897Z,55.30
2023-02-16T11:32:38.284Z,50.58
2023-02-16T11:33:42.269Z,50.55
2023-02-16T11:34:51.681Z,51.13
2023-02-16T11:35:55.409Z,52.28
2023-02-16T11:37:24.324Z,54.70
2023-02-16T11:38:57.757Z,55.28
2023-02-16T11:40:03.912Z,59.60
2023-02-16T11:41:07.692Z,56.08
2023-02-16T11:42:34.860Z,47.63
2023-02-16T11:43:38.788Z,56.63
2023-02-16T11:44:51.448Z,51.85
2023-02-16T11:46:06.829Z,50.00
2023-02-16T11:47:21.416Z,54.30
2023-02-16T11:48:29.690Z,50.85
2023-02-16T11:49:41.710Z,52.72
2023-02-16T11:51:11.721Z,50.90
2023-02-16T11:52:23.303Z,47.03
2023-02-16T11:53:33.841Z,49.70
2023-02-16T11:54:36.529Z,48.00
2023-02-16T11:55:41.794Z,46.65
2023-02-16T11:56:46.231Z,51.05
2023-02-16T11:57:49.177Z,53.13
2023-02-16T11:59:16.959Z,59.47
2023-02-16T12:00:22.558Z,53.40
2023-02-16T12:01:40.597Z,52.90
2023-02-16T12:02:46.511Z,46.30
2023-02-16T12:03:51.957Z,53.83
2023-02-16T12:05:22.424Z,50.20
2023-02-16T12:06:43.382Z,54.17
2023-02-16T12:08:08.864Z,46.28
2023-02-16T12:09:23.346Z,48.85
2023-02-16T12:10:41.433Z,50.65
2023-02-16T12:12:20.004Z,50.65
2023-02-16T12:13:28.685Z,47.03
2023-02-16T12:14:46.688Z,46.47
2023-02-16T12:15:57.766Z,48.83
2023-02-16T12:17:12.081Z,52.72
2023-02-16T12:18:26.458Z,51.25
2023-02-16T12:19:41.888Z,55.10
2023-02-16T12:20:59.172Z,53.28
2023-02-16T12:22:07.758Z,50.30
2023-02-16T12:23:18.786Z,55.17
2023-02-16T12:24:49.569Z,49.75
2023-02-16T12:26:11.534Z,52.40
2023-02-16T12:27:46.954Z,57.85
2023-02-16T12:29:03.686Z,49.35
2023-02-16T12:30:12.384Z,58.40
2023-02-16T12:31:27.063Z,57.38
2023-02-16T12:32:48.602Z,53.60
2023-02-16T12:34:04.647Z,52.60
2023-02-16T12:35:15.966Z,56.92
2023-02-16T12:36:20.186Z,51.63
2023-02-16T12:37:44.178Z,51.90
2023-02-16T12:38:56.839Z,56.78
2023-02-16T12:40:15.584Z,56.00
2023-02-16T12:41:54.905Z,49.30
2023-02-16T12:43:21.905Z,50.25
2023-02-16T12:44:38.217Z,53.88
2023-02-16T12:45:44.459Z,54.47
2023-02-16T12:46:48.986Z,55.17
2023-02-16T12:47:58.185Z,53.55
2023-02-16T12:49:27.582Z,57.85
2023-02-16T12:50:32.739Z,55.38
2023-02-16T12:51:38.704Z,59.53
2023-02-16T12:52:46.509Z,53.83
2023-02-16T12:54:12.068Z,51.60
2023-02-16T12:55:38.260Z,56.47
2023-02-16T12:56:48.029Z,56.22
2023-02-16T12:57:57.177Z,54.85
2023-02-16T12:59:26.578Z,56.95
2023-02-16T13:00:35.739Z,55.40
2023-02-16T13:01:38.313Z,58.00
2023-02-16T13:02:46.329Z,56.15
2023-02-16T13:04:08.977Z,58.00
2023-02-16T13:05:18.942Z,51.08
2023-02-16T13:06:55.840Z,54.45
2023-02-16T13:08:39.173Z,55.22
2023-02-16T13:09:46.288Z,54.58
2023-02-16T13:10:58.863Z,59.53
2023-02-16T13:12:12.221Z,57.42
2023-02-16T13:13:25.368Z,51.20
2023-02-16T13:14:32.702Z,55.22
2023-02-16T13:15:43.650Z,54.80
2023-02-16T13:16:56.328Z,53.88
2023-02-16T13:18:22.219Z,55.05
2023-02-16T13:19:25.206Z,59.05
2023-02-16T13:20:28.813Z,56.17
2023-02-16T13:21:51.586Z,55.25
2023-02-16T13:22:57.065Z,52.28
2023-02-16T13:24:08.369Z,54.38
2023-02-16T13:25:52.742Z,50.60
2023-02-16T13:27:01.576Z,53.50
2023-02-16T13:28:25.633Z,57.78
2023-02-16T13:29:34.580Z,51.58
2023-02-16T13:30:58.323Z,49.63
2023-02-16T13:32:22.850Z,56.92
2023-02-16T13:34:08.411Z,55.70
2023-02-16T13:35:35.703Z,48.78
2023-02-16T13:36:57.355Z,56.72
2023-02-16T13:38:23.930Z,66.75
2023-02-16T13:39:34.716Z,68.53
2023-02-16T13:42:07.159Z,64.40
2023-02-16T13:43:37.133Z,63.83
2023-02-16T13:44:48.776Z,64.72
2023-02-16T13:45:54.778Z,60.85
2023-02-16T13:46:57.387Z,59.55
2023-02-16T13:48:00.464Z,54.30
2023-02-16T13:49:03.274Z,58.90
2023-02-16T13:50:22.545Z,58.53
2023-02-16T13:51:27.463Z,60.00
2023-02-16T13:52:34.033Z,64.13
2023-02-16T13:53:38.382Z,62.25
2023-02-16T13:54:45.143Z,53.75
2023-02-16T13:55:52.841Z,58.05
2023-02-16T13:56:55.586Z,54.03
2023-02-16T13:58:01.276Z,54.17
2023-02-16T13:59:19.589Z,51.97
2023-02-16T14:00:31.387Z,62.63
2023-02-16T14:01:39.948Z,59.78
2023-02-16T14:03:22.260Z,53.17
2023-02-16T14:04:24.944Z,59.42
2023-02-16T14:05:39.814Z,54.30
2023-02-16T14:06:42.984Z,53.42
2023-02-16T14:07:45.926Z,60.00
2023-02-16T14:09:14.567Z,65.05
2023-02-16T14:10:17.204Z,60.85
2023-02-16T14:11:19.963Z,62.22
2023-02-16T14:12:31.881Z,61.63
2023-02-16T14:13:37.573Z,58.28
2023-02-16T14:14:43.473Z,60.85
2023-02-16T14:15:53.477Z,62.15
2023-02-16T14:16:56.810Z,65.05
2023-02-16T14:17:59.312Z,65.65
2023-02-16T14:19:03.642Z,56.65
2023-02-16T14:20:22.606Z,58.92
2023-02-16T14:21:40.006Z,61.45
2023-02-16T14:22:57.568Z,61.50
2023-02-16T14:24:01.292Z,53.67
2023-02-16T14:25:07.376Z,60.28
2023-02-16T14:26:14.768Z,57.35
2023-02-16T14:27:45.084Z,60.30
2023-02-16T14:29:09.781Z,58.08
2023-02-16T14:30:18.204Z,58.53
2023-02-16T14:31:23.180Z,58.50
2023-02-16T14:32:38.576Z,53.13
2023-02-16T14:33:43.915Z,57.75
2023-02-16T14:34:56.469Z,57.88
2023-02-16T14:35:58.974Z,64.18
2023-02-16T14:37:17.071Z,57.85
2023-02-16T14:38:30.616Z,59.63
2023-02-16T14:39:34.954Z,59.47
2023-02-16T14:40:43.986Z,61.67
2023-02-16T14:41:46.591Z,56.28
2023-02-16T14:42:55.831Z,59.13
2023-02-16T14:44:04.397Z,54.17
2023-02-16T14:45:09.905Z,54.67